Time,TemperatureF,DewpointF,PressureIn,WindDirection,WindDirectionDegrees,WindSpeedMPH,WindSpeedGustMPH,Humidity,HourlyPrecipIn,Conditions,Clouds,dailyrainin,SoftwareType,DateUTC
2013-04-08 00:09:00,29.1,27.0,29.66,SW,222,14.0,-999.0,91,-99.99,,,0.00,weatherlink.com 1.10,2013-04-08 06:09:00,
2013-04-08 00:25:00,29.2,27.0,29.66,WSW,242,13.0,-999.0,90,-99.99,,,0.00,weatherlink.com 1.10,2013-04-08 06:25:00,
2013-04-08 00:40:00,29.6,26.0,29.66,SW,227,14.0,-999.0,87,-99.99,,,0.00,weatherlink.com 1.10,2013-04-08 06:40:00,
2013-04-08 00:55:00,30.1,26.0,29.65,SSW,213,11.0,-999.0,83,-99.99,,,0.00,weatherlink.com 1.10,2013-04-08 06:55:00,
2013-04-08 01:10:00,30.0,25.0,29.65,SSW,211,9.0,-999.0,83,-99.99,,,0.00,weatherlink.com 1.10,2013-04-08 07:10:00,
2013-04-08 01:25:00,30.3,24.0,29.65,SSW,212,12.0,-999.0,78,-99.99,,,0.00,weatherlink.com 1.10,2013-04-08 07:25:00,
2013-04-08 01:40:00,30.6,23.0,29.64,South,173,10.0,-999.0,74,-99.99,,,0.00,weatherlink.com 1.10,2013-04-08 07:40:00,
2013-04-08 01:56:00,30.8,22.0,29.64,SW,214,17.0,-999.0,70,-99.99,,,0.00,weatherlink.com 1.10,2013-04-08 07:56:00,
2013-04-08 02:26:00,30.6,20.0,29.63,SW,224,12.0,-999.0,65,-99.99,,,0.00,weatherlink.com 1.10,2013-04-08 08:26:00,
2013-04-08 02:41:00,29.9,20.0,29.64,SSW,203,11.0,-999.0,67,-99.99,,,0.00,weatherlink.com 1.10,2013-04-08 08:41:00,
2013-04-08 02:56:00,30.3,19.0,29.63,SSW,195,14.0,-999.0,63,-99.99,,,0.00,weatherlink.com 1.10,2013-04-08 08:56:00,
2013-04-08 03:12:00,30.6,18.0,29.64,South,181,12.0,-999.0,60,-99.99,,,0.00,weatherlink.com 1.10,2013-04-08 09:12:00,
2013-04-08 03:27:00,29.8,17.0,29.64,SSW,192,11.0,-999.0,60,-99.99,,,0.00,weatherlink.com 1.10,2013-04-08 09:27:00,
2013-04-08 03:42:00,30.2,16.0,29.64,South,180,16.0,-999.0,57,-99.99,,,0.00,weatherlink.com 1.10,2013-04-08 09:42:00,
2013-04-08 03:57:00,30.7,17.0,29.62,SSW,198,19.0,-999.0,56,-99.99,,,0.00,weatherlink.com 1.10,2013-04-08 09:57:00,
2013-04-08 04:12:00,30.9,18.0,29.61,South,179,24.0,-999.0,58,-99.99,,,0.00,weatherlink.com 1.10,2013-04-08 10:12:00,
2013-04-08 04:27:00,30.6,18.0,29.61,SSE,164,19.0,-999.0,60,-99.99,,,0.00,weatherlink.com 1.10,2013-04-08 10:27:00,
2013-04-08 04:43:00,31.2,17.0,29.61,South,170,17.0,-999.0,57,-99.99,,,0.00,weatherlink.com 1.10,2013-04-08 10:43:00,
2013-04-08 04:58:00,30.8,18.0,29.61,South,171,22.0,-999.0,59,-99.99,,,0.00,weatherlink.com 1.10,2013-04-08 10:58:00,
2013-04-08 05:13:00,31.0,18.0,29.61,South,172,19.0,-999.0,58,-99.99,,,0.00,weatherlink.com 1.10,2013-04-08 11:13:00,
2013-04-08 05:28:00,30.3,18.0,29.61,SSW,198,18.0,-999.0,61,-99.99,,,0.00,weatherlink.com 1.10,2013-04-08 11:28:00,
2013-04-08 05:43:00,30.5,18.0,29.60,SSW,207,12.0,-999.0,60,-99.99,,,0.00,weatherlink.com 1.10,2013-04-08 11:43:00,
2013-04-08 05:59:00,30.3,19.0,29.59,SSW,213,11.0,-999.0,62,-99.99,,,0.00,weatherlink.com 1.10,2013-04-08 11:59:00,
2013-04-08 06:14:00,30.9,18.0,29.59,SSW,200,13.0,-999.0,60,-99.99,,,0.00,weatherlink.com 1.10,2013-04-08 12:14:00,
2013-04-08 06:45:00,31.3,18.0,29.57,South,171,17.0,-999.0,59,-99.99,,,0.00,weatherlink.com 1.10,2013-04-08 12:45:00,
2013-04-08 06:59:00,30.3,20.0,29.57,SSE,162,20.0,-999.0,65,-99.99,,,0.00,weatherlink.com 1.10,2013-04-08 12:59:00,
2013-04-08 07:14:00,29.3,22.0,29.58,SE,136,13.0,-999.0,74,-99.99,,,0.00,weatherlink.com 1.10,2013-04-08 13:14:00,
2013-04-08 07:29:00,29.3,23.0,29.58,SE,129,5.0,-999.0,76,-99.99,,,0.00,weatherlink.com 1.10,2013-04-08 13:29:00,
2013-04-08 07:45:00,29.8,22.0,29.58,East,92,8.0,-999.0,72,-99.99,,,0.00,weatherlink.com 1.10,2013-04-08 13:45:00,
2013-04-08 08:00:00,30.2,20.0,29.58,ESE,105,11.0,-999.0,65,-99.99,,,0.00,weatherlink.com 1.10,2013-04-08 14:00:00,
2013-04-08 08:15:00,29.6,20.0,29.58,ENE,70,3.0,-999.0,68,-99.99,,,0.00,weatherlink.com 1.10,2013-04-08 14:15:00,
2013-04-08 08:30:00,29.9,20.0,29.57,ESE,112,4.0,-999.0,67,-99.99,,,0.00,weatherlink.com 1.10,2013-04-08 14:30:00,
2013-04-08 08:45:00,30.7,20.0,29.57,North,5,4.0,-999.0,65,-99.99,,,0.00,weatherlink.com 1.10,2013-04-08 14:45:00,
2013-04-08 09:00:00,31.8,20.0,29.57,NE,53,5.0,-999.0,62,-99.99,,,0.00,weatherlink.com 1.10,2013-04-08 15:00:00,
2013-04-08 09:16:00,32.1,20.0,29.56,East,101,6.0,-999.0,62,-99.99,,,0.00,weatherlink.com 1.10,2013-04-08 15:16:00,
2013-04-08 09:31:00,33.0,22.0,29.55,SE,126,6.0,-999.0,63,-99.99,,,0.00,weatherlink.com 1.10,2013-04-08 15:31:00,
2013-04-08 09:46:00,33.6,22.0,29.54,ESE,109,14.0,-999.0,63,-99.99,,,0.00,weatherlink.com 1.10,2013-04-08 15:46:00,
2013-04-08 10:01:00,34.2,23.0,29.54,East,90,6.0,-999.0,64,-99.99,,,0.00,weatherlink.com 1.10,2013-04-08 16:01:00,
2013-04-08 10:18:00,-999.0,-99.9,29.46,North,-999,-999.0,-999.0,-999,-99.99,,,0.00,weatherlink.com 1.10,2013-04-08 16:18:00,
2013-04-08 10:31:00,35.5,23.0,29.47,ESE,117,5.0,-999.0,60,-99.99,,,0.00,weatherlink.com 1.10,2013-04-08 16:31:00,
2013-04-08 10:59:00,37.1,24.0,29.48,East,101,6.0,-999.0,59,-99.99,,,0.00,weatherlink.com 1.10,2013-04-08 16:59:00,
2013-04-08 11:29:00,38.6,24.0,29.49,NE,49,6.0,-999.0,55,-99.99,,,0.00,weatherlink.com 1.10,2013-04-08 17:29:00,
2013-04-08 11:59:00,42.0,26.0,29.48,ESE,119,6.0,-999.0,54,-99.99,,,0.00,weatherlink.com 1.10,2013-04-08 17:59:00,
2013-04-08 12:15:00,43.5,25.0,29.46,NNW,337,3.0,-999.0,48,-99.99,,,0.00,weatherlink.com 1.10,2013-04-08 18:15:00,
2013-04-08 12:45:00,40.0,24.0,29.43,ESE,109,16.0,-999.0,54,-99.99,,,0.00,weatherlink.com 1.10,2013-04-08 18:45:00,
2013-04-08 13:00:00,39.5,24.0,29.43,ENE,76,19.0,-999.0,55,-99.99,,,0.00,weatherlink.com 1.10,2013-04-08 19:00:00,
2013-04-08 13:15:00,39.0,23.0,29.43,NNE,17,3.0,-999.0,54,-99.99,,,0.00,weatherlink.com 1.10,2013-04-08 19:15:00,
2013-04-08 13:30:00,38.6,25.0,29.41,NNW,335,7.0,-999.0,58,-99.99,,,0.00,weatherlink.com 1.10,2013-04-08 19:30:00,
2013-04-08 13:46:00,39.8,25.0,29.39,NNW,342,8.0,-999.0,56,-99.99,,,0.00,weatherlink.com 1.10,2013-04-08 19:46:00,
2013-04-08 14:16:00,39.4,25.0,29.40,North,355,11.0,-999.0,56,-99.99,,,0.00,weatherlink.com 1.10,2013-04-08 20:16:00,
2013-04-08 14:31:00,36.7,27.0,29.37,South,185,8.0,-999.0,67,-99.99,,,0.00,weatherlink.com 1.10,2013-04-08 20:31:00,
2013-04-08 14:46:00,35.4,27.0,29.39,WSW,240,5.0,-999.0,72,-99.99,,,0.00,weatherlink.com 1.10,2013-04-08 20:46:00,
2013-04-08 15:02:00,32.3,27.0,29.38,SSE,163,4.0,-999.0,81,-99.99,,,0.00,weatherlink.com 1.10,2013-04-08 21:02:00,
2013-04-08 15:17:00,30.4,27.0,29.37,South,173,15.0,-999.0,86,-99.99,,,0.00,weatherlink.com 1.10,2013-04-08 21:17:00,
2013-04-08 15:32:00,-999.0,-99.9,29.37,North,-999,-999.0,-999.0,-999,-99.99,,,0.00,weatherlink.com 1.10,2013-04-08 21:32:00,
2013-04-08 15:47:00,29.1,27.0,29.40,East,94,14.0,-999.0,91,-99.99,,,0.00,weatherlink.com 1.10,2013-04-08 21:47:00,
2013-04-08 16:02:00,29.0,27.0,29.41,NE,49,2.0,-999.0,93,-99.99,,,0.00,weatherlink.com 1.10,2013-04-08 22:02:00,
2013-04-08 16:18:00,29.0,28.0,29.41,NNE,17,5.0,-999.0,94,-99.99,,,0.00,weatherlink.com 1.10,2013-04-08 22:18:00,
2013-04-08 16:34:00,28.9,27.0,29.43,East,88,0.0,-999.0,94,-99.99,,,0.00,weatherlink.com 1.10,2013-04-08 22:34:00,
2013-04-08 16:48:00,28.1,27.0,29.43,NNE,29,3.0,-999.0,94,-99.99,,,0.00,weatherlink.com 1.10,2013-04-08 22:48:00,
2013-04-08 17:03:00,27.4,26.0,29.43,NNE,17,16.0,-999.0,94,-99.99,,,0.00,weatherlink.com 1.10,2013-04-08 23:03:00,
2013-04-08 17:18:00,25.7,24.0,29.44,North,360,14.0,-999.0,94,-99.99,,,0.00,weatherlink.com 1.10,2013-04-08 23:18:00,
2013-04-08 17:49:00,22.6,21.0,29.45,North,355,15.0,-999.0,93,-99.99,,,0.00,weatherlink.com 1.10,2013-04-08 23:49:00,
2013-04-08 18:04:00,21.9,20.0,29.45,North,5,15.0,-999.0,93,-99.99,,,0.00,weatherlink.com 1.10,2013-04-09 00:04:00,
2013-04-08 18:19:00,19.9,18.0,29.45,North,5,19.0,-999.0,92,-99.99,,,0.00,weatherlink.com 1.10,2013-04-09 00:19:00,
2013-04-08 18:34:00,18.0,16.0,29.45,North,351,17.0,-999.0,91,-99.99,,,0.00,weatherlink.com 1.10,2013-04-09 00:34:00,
2013-04-08 18:50:00,17.6,16.0,29.46,North,5,15.0,-999.0,91,-99.99,,,0.00,weatherlink.com 1.10,2013-04-09 00:50:00,
2013-04-08 19:05:00,17.3,15.0,29.47,NNW,342,13.0,-999.0,91,-99.99,,,0.00,weatherlink.com 1.10,2013-04-09 01:05:00,
2013-04-08 19:20:00,17.0,15.0,29.49,North,355,11.0,-999.0,91,-99.99,,,0.00,weatherlink.com 1.10,2013-04-09 01:20:00,
2013-04-08 19:35:00,16.6,15.0,29.50,North,360,7.0,-999.0,91,-99.99,,,0.00,weatherlink.com 1.10,2013-04-09 01:35:00,
2013-04-08 20:06:00,15.1,13.0,29.50,NNW,340,7.0,-999.0,91,-99.99,,,0.00,weatherlink.com 1.10,2013-04-09 02:06:00,
2013-04-08 20:21:00,14.7,12.0,29.50,NW,326,5.0,-999.0,90,-99.99,,,0.00,weatherlink.com 1.10,2013-04-09 02:21:00,
2013-04-08 20:36:00,14.4,12.0,29.52,NNW,336,5.0,-999.0,90,-99.99,,,0.00,weatherlink.com 1.10,2013-04-09 02:36:00,
2013-04-08 20:51:00,13.6,11.0,29.54,NNW,338,5.0,-999.0,90,-99.99,,,0.00,weatherlink.com 1.10,2013-04-09 02:51:00,
2013-04-08 21:06:00,13.2,11.0,29.55,NNW,336,3.0,-999.0,90,-99.99,,,0.00,weatherlink.com 1.10,2013-04-09 03:06:00,
2013-04-08 21:22:00,12.8,11.0,29.57,NW,323,3.0,-999.0,90,-99.99,,,0.00,weatherlink.com 1.10,2013-04-09 03:22:00,
2013-04-08 21:37:00,12.6,10.0,29.58,NNW,348,6.0,-999.0,90,-99.99,,,0.00,weatherlink.com 1.10,2013-04-09 03:37:00,
2013-04-08 21:52:00,12.1,10.0,29.56,North,355,9.0,-999.0,89,-99.99,,,0.00,weatherlink.com 1.10,2013-04-09 03:52:00,
2013-04-08 22:09:00,11.2,9.0,29.57,NNW,341,5.0,-999.0,89,-99.99,,,0.00,weatherlink.com 1.10,2013-04-09 04:09:00,
2013-04-08 22:22:00,10.6,8.0,29.61,NNW,346,7.0,-999.0,89,-99.99,,,0.00,weatherlink.com 1.10,2013-04-09 04:22:00,
2013-04-08 22:37:00,10.1,8.0,29.60,NNW,334,6.0,-999.0,89,-99.99,,,0.00,weatherlink.com 1.10,2013-04-09 04:37:00,
2013-04-08 22:53:00,9.6,7.0,29.60,NNW,342,5.0,-999.0,89,-99.99,,,0.00,weatherlink.com 1.10,2013-04-09 04:53:00,
2013-04-08 23:08:00,9.3,7.0,29.62,North,355,5.0,-999.0,89,-99.99,,,0.00,weatherlink.com 1.10,2013-04-09 05:08:00,
2013-04-08 23:23:00,8.9,6.0,29.63,NNW,342,7.0,-999.0,88,-99.99,,,0.00,weatherlink.com 1.10,2013-04-09 05:23:00,
2013-04-08 23:38:00,8.7,6.0,29.64,NNW,329,4.0,-999.0,88,-99.99,,,0.00,weatherlink.com 1.10,2013-04-09 05:38:00,